sensor_id;sensor_type;location;lat;lon;timestamp;P1;durP1;ratioP1;P2;durP2;ratioP2
29878;SDS011;16752;53.364;-1.488;2023-07-30T00:02:16;17.92;;;3.00;;
29878;SDS011;16752;53.364;-1.488;2023-07-30T00:05:04;9.27;;;3.47;;
29878;SDS011;16752;53.364;-1.488;2023-07-30T00:07:49;10.10;;;2.72;;
29878;SDS011;16752;53.364;-1.488;2023-07-30T00:10:35;19.02;;;3.67;;
29878;SDS011;16752;53.364;-1.488;2023-07-30T00:13:19;20.58;;;3.47;;
29878;SDS011;16752;53.364;-1.488;2023-07-30T00:16:03;11.98;;;3.17;;
29878;SDS011;16752;53.364;-1.488;2023-07-30T00:18:48;13.70;;;3.25;;
29878;SDS011;16752;53.364;-1.488;2023-07-30T00:21:35;15.95;;;3.97;;
29878;SDS011;16752;53.364;-1.488;2023-07-30T00:24:19;10.07;;;3.22;;
29878;SDS011;16752;53.364;-1.488;2023-07-30T00:27:03;15.98;;;3.95;;
29878;SDS011;16752;53.364;-1.488;2023-07-30T00:29:47;17.25;;;3.33;;
29878;SDS011;16752;53.364;-1.488;2023-07-30T00:32:31;17.55;;;4.13;;
29878;SDS011;16752;53.364;-1.488;2023-07-30T00:35:15;13.68;;;4.00;;
29878;SDS011;16752;53.364;-1.488;2023-07-30T00:38:00;10.93;;;3.25;;
29878;SDS011;16752;53.364;-1.488;2023-07-30T00:40:44;20.40;;;3.40;;
29878;SDS011;16752;53.364;-1.488;2023-07-30T00:43:28;10.85;;;2.78;;
29878;SDS011;16752;53.364;-1.488;2023-07-30T00:46:12;17.33;;;3.35;;
29878;SDS011;16752;53.364;-1.488;2023-07-30T00:48:56;15.85;;;3.63;;
29878;SDS011;16752;53.364;-1.488;2023-07-30T00:51:40;19.45;;;3.83;;
29878;SDS011;16752;53.364;-1.488;2023-07-30T00:54:25;17.20;;;3.35;;
29878;SDS011;16752;53.364;-1.488;2023-07-30T00:57:12;12.70;;;3.15;;
29878;SDS011;16752;53.364;-1.488;2023-07-30T00:59:57;13.50;;;3.13;;
29878;SDS011;16752;53.364;-1.488;2023-07-30T01:02:41;13.20;;;3.28;;
29878;SDS011;16752;53.364;-1.488;2023-07-30T01:05:25;19.20;;;3.58;;
29878;SDS011;16752;53.364;-1.488;2023-07-30T01:08:09;9.13;;;2.83;;
29878;SDS011;16752;53.364;-1.488;2023-07-30T01:10:53;14.63;;;3.17;;
29878;SDS011;16752;53.364;-1.488;2023-07-30T01:13:38;14.52;;;3.88;;
29878;SDS011;16752;53.364;-1.488;2023-07-30T01:16:23;10.65;;;2.67;;
29878;SDS011;16752;53.364;-1.488;2023-07-30T01:19:07;15.80;;;3.65;;
29878;SDS011;16752;53.364;-1.488;2023-07-30T01:21:51;9.75;;;3.25;;
29878;SDS011;16752;53.364;-1.488;2023-07-30T01:24:35;19.42;;;3.28;;
29878;SDS011;16752;53.364;-1.488;2023-07-30T01:27:23;16.35;;;3.83;;
29878;SDS011;16752;53.364;-1.488;2023-07-30T01:30:24;12.60;;;2.92;;
29878;SDS011;16752;53.364;-1.488;2023-07-30T01:33:11;23.17;;;4.18;;
29878;SDS011;16752;53.364;-1.488;2023-07-30T01:35:55;12.35;;;3.45;;
29878;SDS011;16752;53.364;-1.488;2023-07-30T01:38:40;12.65;;;3.63;;
29878;SDS011;16752;53.364;-1.488;2023-07-30T01:41:26;11.40;;;3.38;;
29878;SDS011;16752;53.364;-1.488;2023-07-30T01:44:10;19.83;;;3.85;;
29878;SDS011;16752;53.364;-1.488;2023-07-30T01:46:54;18.58;;;3.38;;
29878;SDS011;16752;53.364;-1.488;2023-07-30T01:49:38;9.93;;;3.15;;
29878;SDS011;16752;53.364;-1.488;2023-07-30T01:52:22;14.35;;;3.10;;
29878;SDS011;16752;53.364;-1.488;2023-07-30T01:55:06;14.52;;;3.15;;
29878;SDS011;16752;53.364;-1.488;2023-07-30T01:57:51;18.63;;;5.13;;
29878;SDS011;16752;53.364;-1.488;2023-07-30T02:00:35;13.20;;;3.22;;
29878;SDS011;16752;53.364;-1.488;2023-07-30T02:03:19;13.38;;;3.38;;
29878;SDS011;16752;53.364;-1.488;2023-07-30T02:06:03;14.25;;;3.40;;
29878;SDS011;16752;53.364;-1.488;2023-07-30T02:08:47;15.07;;;3.13;;
29878;SDS011;16752;53.364;-1.488;2023-07-30T02:11:31;13.88;;;3.40;;
29878;SDS011;16752;53.364;-1.488;2023-07-30T02:14:15;17.92;;;4.00;;
29878;SDS011;16752;53.364;-1.488;2023-07-30T02:16:59;12.77;;;3.08;;
29878;SDS011;16752;53.364;-1.488;2023-07-30T02:19:43;11.68;;;3.05;;
29878;SDS011;16752;53.364;-1.488;2023-07-30T02:22:26;17.08;;;3.45;;
29878;SDS011;16752;53.364;-1.488;2023-07-30T02:25:11;11.63;;;3.25;;
29878;SDS011;16752;53.364;-1.488;2023-07-30T02:27:59;10.45;;;2.92;;
29878;SDS011;16752;53.364;-1.488;2023-07-30T02:30:43;12.52;;;3.33;;
29878;SDS011;16752;53.364;-1.488;2023-07-30T02:33:27;8.73;;;2.65;;
29878;SDS011;16752;53.364;-1.488;2023-07-30T02:36:13;8.30;;;2.20;;
29878;SDS011;16752;53.364;-1.488;2023-07-30T02:38:57;10.40;;;2.05;;
29878;SDS011;16752;53.364;-1.488;2023-07-30T02:41:41;10.10;;;2.78;;
29878;SDS011;16752;53.364;-1.488;2023-07-30T02:44:25;8.93;;;2.92;;
29878;SDS011;16752;53.364;-1.488;2023-07-30T02:47:09;9.77;;;2.50;;
29878;SDS011;16752;53.364;-1.488;2023-07-30T02:49:56;9.10;;;2.85;;
29878;SDS011;16752;53.364;-1.488;2023-07-30T02:52:40;9.43;;;2.60;;
29878;SDS011;16752;53.364;-1.488;2023-07-30T02:55:24;10.77;;;3.28;;
29878;SDS011;16752;53.364;-1.488;2023-07-30T02:58:08;9.52;;;2.50;;
29878;SDS011;16752;53.364;-1.488;2023-07-30T03:00:52;9.20;;;2.50;;
29878;SDS011;16752;53.364;-1.488;2023-07-30T03:03:36;6.70;;;2.10;;
29878;SDS011;16752;53.364;-1.488;2023-07-30T03:06:19;7.72;;;2.63;;
29878;SDS011;16752;53.364;-1.488;2023-07-30T03:09:06;8.85;;;2.60;;
29878;SDS011;16752;53.364;-1.488;2023-07-30T03:11:51;14.15;;;2.70;;
29878;SDS011;16752;53.364;-1.488;2023-07-30T03:14:35;9.63;;;2.67;;
29878;SDS011;16752;53.364;-1.488;2023-07-30T03:17:19;8.35;;;2.10;;
29878;SDS011;16752;53.364;-1.488;2023-07-30T03:20:03;7.50;;;2.58;;
29878;SDS011;16752;53.364;-1.488;2023-07-30T03:22:48;10.15;;;2.47;;
29878;SDS011;16752;53.364;-1.488;2023-07-30T03:25:32;9.93;;;3.70;;
29878;SDS011;16752;53.364;-1.488;2023-07-30T03:28:16;13.82;;;3.25;;
29878;SDS011;16752;53.364;-1.488;2023-07-30T03:30:59;15.38;;;3.15;;
29878;SDS011;16752;53.364;-1.488;2023-07-30T03:33:44;12.98;;;2.78;;
29878;SDS011;16752;53.364;-1.488;2023-07-30T03:36:29;11.57;;;2.50;;
29878;SDS011;16752;53.364;-1.488;2023-07-30T03:39:13;10.20;;;2.88;;
29878;SDS011;16752;53.364;-1.488;2023-07-30T03:41:57;12.73;;;2.60;;
29878;SDS011;16752;53.364;-1.488;2023-07-30T03:44:41;16.67;;;2.97;;
29878;SDS011;16752;53.364;-1.488;2023-07-30T03:47:25;12.60;;;3.40;;
29878;SDS011;16752;53.364;-1.488;2023-07-30T03:50:09;8.00;;;1.92;;
29878;SDS011;16752;53.364;-1.488;2023-07-30T03:52:53;12.38;;;2.58;;
29878;SDS011;16752;53.364;-1.488;2023-07-30T03:55:37;9.27;;;2.78;;
29878;SDS011;16752;53.364;-1.488;2023-07-30T03:58:21;9.10;;;2.50;;
29878;SDS011;16752;53.364;-1.488;2023-07-30T04:01:05;11.52;;;2.95;;
29878;SDS011;16752;53.364;-1.488;2023-07-30T04:03:52;8.18;;;2.22;;
29878;SDS011;16752;53.364;-1.488;2023-07-30T04:06:36;9.35;;;3.08;;
29878;SDS011;16752;53.364;-1.488;2023-07-30T04:09:20;9.25;;;2.33;;
29878;SDS011;16752;53.364;-1.488;2023-07-30T04:12:04;6.22;;;1.95;;
29878;SDS011;16752;53.364;-1.488;2023-07-30T04:14:48;7.25;;;2.50;;
29878;SDS011;16752;53.364;-1.488;2023-07-30T04:17:33;7.18;;;2.08;;
29878;SDS011;16752;53.364;-1.488;2023-07-30T04:20:19;4.80;;;2.20;;
29878;SDS011;16752;53.364;-1.488;2023-07-30T04:23:03;15.57;;;2.50;;
29878;SDS011;16752;53.364;-1.488;2023-07-30T04:25:50;8.50;;;2.05;;
29878;SDS011;16752;53.364;-1.488;2023-07-30T04:28:35;12.95;;;3.28;;
29878;SDS011;16752;53.364;-1.488;2023-07-30T04:31:19;9.40;;;2.78;;
29878;SDS011;16752;53.364;-1.488;2023-07-30T04:34:03;7.30;;;2.25;;
29878;SDS011;16752;53.364;-1.488;2023-07-30T04:36:47;8.80;;;2.45;;
29878;SDS011;16752;53.364;-1.488;2023-07-30T04:39:34;8.82;;;1.50;;
29878;SDS011;16752;53.364;-1.488;2023-07-30T04:42:19;4.85;;;1.55;;
29878;SDS011;16752;53.364;-1.488;2023-07-30T04:45:21;12.13;;;1.77;;
29878;SDS011;16752;53.364;-1.488;2023-07-30T04:48:05;6.28;;;1.88;;
29878;SDS011;16752;53.364;-1.488;2023-07-30T04:50:49;7.43;;;2.53;;
29878;SDS011;16752;53.364;-1.488;2023-07-30T04:53:33;5.75;;;1.80;;
29878;SDS011;16752;53.364;-1.488;2023-07-30T04:56:17;8.98;;;1.42;;
29878;SDS011;16752;53.364;-1.488;2023-07-30T04:59:01;4.72;;;1.42;;
29878;SDS011;16752;53.364;-1.488;2023-07-30T05:01:45;10.35;;;1.67;;
29878;SDS011;16752;53.364;-1.488;2023-07-30T05:04:30;4.78;;;1.83;;
29878;SDS011;16752;53.364;-1.488;2023-07-30T05:07:13;6.72;;;1.00;;
29878;SDS011;16752;53.364;-1.488;2023-07-30T05:09:57;9.93;;;1.73;;
29878;SDS011;16752;53.364;-1.488;2023-07-30T05:12:41;7.03;;;1.67;;
29878;SDS011;16752;53.364;-1.488;2023-07-30T05:15:26;9.55;;;1.70;;
29878;SDS011;16752;53.364;-1.488;2023-07-30T05:18:10;3.13;;;1.33;;
29878;SDS011;16752;53.364;-1.488;2023-07-30T05:20:54;7.25;;;1.55;;
29878;SDS011;16752;53.364;-1.488;2023-07-30T05:23:39;10.52;;;1.80;;
29878;SDS011;16752;53.364;-1.488;2023-07-30T05:26:23;4.25;;;1.15;;
29878;SDS011;16752;53.364;-1.488;2023-07-30T05:29:07;4.63;;;1.48;;
29878;SDS011;16752;53.364;-1.488;2023-07-30T05:31:51;6.38;;;1.15;;
29878;SDS011;16752;53.364;-1.488;2023-07-30T05:34:35;8.35;;;1.63;;
29878;SDS011;16752;53.364;-1.488;2023-07-30T05:37:19;5.40;;;1.55;;
29878;SDS011;16752;53.364;-1.488;2023-07-30T05:40:03;7.65;;;1.40;;
29878;SDS011;16752;53.364;-1.488;2023-07-30T05:42:48;9.10;;;2.15;;
29878;SDS011;16752;53.364;-1.488;2023-07-30T05:45:33;8.52;;;1.90;;
29878;SDS011;16752;53.364;-1.488;2023-07-30T05:48:17;9.60;;;1.55;;
29878;SDS011;16752;53.364;-1.488;2023-07-30T05:51:01;5.30;;;1.42;;
29878;SDS011;16752;53.364;-1.488;2023-07-30T05:53:45;6.13;;;1.13;;
29878;SDS011;16752;53.364;-1.488;2023-07-30T05:56:29;6.65;;;1.20;;
29878;SDS011;16752;53.364;-1.488;2023-07-30T05:59:13;8.35;;;1.65;;
29878;SDS011;16752;53.364;-1.488;2023-07-30T06:02:01;9.88;;;1.90;;
29878;SDS011;16752;53.364;-1.488;2023-07-30T06:04:49;9.98;;;1.77;;
29878;SDS011;16752;53.364;-1.488;2023-07-30T06:07:33;10.90;;;2.22;;
29878;SDS011;16752;53.364;-1.488;2023-07-30T06:10:17;5.75;;;1.73;;
29878;SDS011;16752;53.364;-1.488;2023-07-30T06:13:01;8.30;;;1.55;;
29878;SDS011;16752;53.364;-1.488;2023-07-30T06:15:51;6.65;;;1.60;;
29878;SDS011;16752;53.364;-1.488;2023-07-30T06:18:35;5.82;;;1.80;;
29878;SDS011;16752;53.364;-1.488;2023-07-30T06:21:19;5.15;;;1.60;;
29878;SDS011;16752;53.364;-1.488;2023-07-30T06:24:03;3.13;;;1.27;;
29878;SDS011;16752;53.364;-1.488;2023-07-30T06:26:47;5.85;;;1.70;;
29878;SDS011;16752;53.364;-1.488;2023-07-30T06:29:31;8.50;;;1.70;;
29878;SDS011;16752;53.364;-1.488;2023-07-30T06:32:15;3.97;;;1.42;;
29878;SDS011;16752;53.364;-1.488;2023-07-30T06:34:59;10.25;;;2.08;;
29878;SDS011;16752;53.364;-1.488;2023-07-30T06:37:43;9.82;;;2.10;;
29878;SDS011;16752;53.364;-1.488;2023-07-30T06:40:28;7.60;;;2.05;;
29878;SDS011;16752;53.364;-1.488;2023-07-30T06:43:12;6.43;;;1.50;;
29878;SDS011;16752;53.364;-1.488;2023-07-30T06:45:59;5.65;;;1.98;;
29878;SDS011;16752;53.364;-1.488;2023-07-30T06:48:43;6.70;;;2.25;;
29878;SDS011;16752;53.364;-1.488;2023-07-30T06:51:27;5.30;;;1.45;;
29878;SDS011;16752;53.364;-1.488;2023-07-30T06:54:12;6.30;;;1.90;;
29878;SDS011;16752;53.364;-1.488;2023-07-30T06:56:56;9.82;;;2.25;;
29878;SDS011;16752;53.364;-1.488;2023-07-30T06:59:42;6.78;;;1.83;;
29878;SDS011;16752;53.364;-1.488;2023-07-30T07:02:26;6.93;;;1.73;;
29878;SDS011;16752;53.364;-1.488;2023-07-30T07:05:10;4.65;;;2.00;;
29878;SDS011;16752;53.364;-1.488;2023-07-30T07:07:55;5.22;;;1.70;;
29878;SDS011;16752;53.364;-1.488;2023-07-30T07:10:43;4.32;;;1.63;;
29878;SDS011;16752;53.364;-1.488;2023-07-30T07:13:29;4.65;;;1.23;;
29878;SDS011;16752;53.364;-1.488;2023-07-30T07:16:13;5.80;;;1.80;;
29878;SDS011;16752;53.364;-1.488;2023-07-30T07:18:57;5.63;;;1.38;;
29878;SDS011;16752;53.364;-1.488;2023-07-30T07:21:41;3.38;;;1.65;;
29878;SDS011;16752;53.364;-1.488;2023-07-30T07:24:31;6.95;;;1.60;;
29878;SDS011;16752;53.364;-1.488;2023-07-30T07:27:19;8.82;;;1.45;;
29878;SDS011;16752;53.364;-1.488;2023-07-30T07:30:04;12.48;;;2.30;;
29878;SDS011;16752;53.364;-1.488;2023-07-30T07:32:51;11.25;;;1.90;;
29878;SDS011;16752;53.364;-1.488;2023-07-30T07:35:36;5.95;;;1.90;;
29878;SDS011;16752;53.364;-1.488;2023-07-30T07:38:26;4.75;;;1.70;;
29878;SDS011;16752;53.364;-1.488;2023-07-30T07:41:16;4.70;;;1.50;;
29878;SDS011;16752;53.364;-1.488;2023-07-30T07:44:06;5.03;;;1.63;;
29878;SDS011;16752;53.364;-1.488;2023-07-30T07:46:50;4.13;;;1.30;;
29878;SDS011;16752;53.364;-1.488;2023-07-30T07:49:34;8.20;;;2.08;;
29878;SDS011;16752;53.364;-1.488;2023-07-30T07:52:24;11.27;;;1.85;;
29878;SDS011;16752;53.364;-1.488;2023-07-30T07:58:25;9.38;;;1.67;;
29878;SDS011;16752;53.364;-1.488;2023-07-30T08:01:13;6.57;;;1.30;;
29878;SDS011;16752;53.364;-1.488;2023-07-30T08:03:57;6.50;;;1.83;;
29878;SDS011;16752;53.364;-1.488;2023-07-30T08:06:42;4.00;;;1.80;;
29878;SDS011;16752;53.364;-1.488;2023-07-30T08:09:26;9.60;;;1.77;;
29878;SDS011;16752;53.364;-1.488;2023-07-30T08:12:10;5.82;;;2.13;;
29878;SDS011;16752;53.364;-1.488;2023-07-30T08:14:54;8.77;;;1.80;;
29878;SDS011;16752;53.364;-1.488;2023-07-30T08:17:39;6.38;;;1.85;;
29878;SDS011;16752;53.364;-1.488;2023-07-30T08:20:23;4.60;;;1.77;;
29878;SDS011;16752;53.364;-1.488;2023-07-30T08:23:07;4.43;;;1.70;;
29878;SDS011;16752;53.364;-1.488;2023-07-30T08:25:52;5.72;;;1.70;;
29878;SDS011;16752;53.364;-1.488;2023-07-30T08:28:36;4.18;;;1.55;;
29878;SDS011;16752;53.364;-1.488;2023-07-30T08:31:20;4.50;;;1.58;;
29878;SDS011;16752;53.364;-1.488;2023-07-30T08:34:04;6.55;;;1.35;;
29878;SDS011;16752;53.364;-1.488;2023-07-30T08:36:48;6.22;;;1.67;;
29878;SDS011;16752;53.364;-1.488;2023-07-30T08:39:34;5.53;;;1.25;;
29878;SDS011;16752;53.364;-1.488;2023-07-30T08:42:27;5.47;;;1.48;;
29878;SDS011;16752;53.364;-1.488;2023-07-30T08:45:29;1.92;;;1.20;;
29878;SDS011;16752;53.364;-1.488;2023-07-30T08:48:14;4.45;;;1.10;;
29878;SDS011;16752;53.364;-1.488;2023-07-30T08:50:58;4.40;;;1.63;;
29878;SDS011;16752;53.364;-1.488;2023-07-30T08:53:43;4.55;;;1.83;;
29878;SDS011;16752;53.364;-1.488;2023-07-30T08:56:30;3.60;;;1.50;;
29878;SDS011;16752;53.364;-1.488;2023-07-30T08:59:17;4.35;;;1.08;;
29878;SDS011;16752;53.364;-1.488;2023-07-30T09:02:08;7.50;;;1.63;;
29878;SDS011;16752;53.364;-1.488;2023-07-30T09:05:06;4.43;;;1.38;;
29878;SDS011;16752;53.364;-1.488;2023-07-30T09:07:50;7.03;;;1.58;;
29878;SDS011;16752;53.364;-1.488;2023-07-30T09:10:37;3.92;;;1.35;;
29878;SDS011;16752;53.364;-1.488;2023-07-30T09:13:22;5.80;;;1.77;;
29878;SDS011;16752;53.364;-1.488;2023-07-30T09:16:13;5.88;;;2.13;;
29878;SDS011;16752;53.364;-1.488;2023-07-30T09:19:03;4.60;;;1.35;;
29878;SDS011;16752;53.364;-1.488;2023-07-30T09:21:52;4.30;;;1.67;;
29878;SDS011;16752;53.364;-1.488;2023-07-30T09:24:36;5.18;;;1.65;;
29878;SDS011;16752;53.364;-1.488;2023-07-30T09:27:28;5.90;;;2.00;;
29878;SDS011;16752;53.364;-1.488;2023-07-30T09:30:14;6.30;;;1.63;;
29878;SDS011;16752;53.364;-1.488;2023-07-30T09:32:58;3.40;;;1.42;;
29878;SDS011;16752;53.364;-1.488;2023-07-30T09:35:44;2.90;;;1.40;;
29878;SDS011;16752;53.364;-1.488;2023-07-30T09:38:28;5.70;;;1.55;;
29878;SDS011;16752;53.364;-1.488;2023-07-30T09:41:16;5.53;;;1.48;;
29878;SDS011;16752;53.364;-1.488;2023-07-30T09:44:01;5.68;;;1.65;;
29878;SDS011;16752;53.364;-1.488;2023-07-30T09:46:46;5.18;;;1.38;;
29878;SDS011;16752;53.364;-1.488;2023-07-30T09:49:34;5.00;;;1.50;;
29878;SDS011;16752;53.364;-1.488;2023-07-30T09:52:20;4.60;;;0.95;;
29878;SDS011;16752;53.364;-1.488;2023-07-30T09:55:06;3.45;;;1.35;;
29878;SDS011;16752;53.364;-1.488;2023-07-30T09:57:54;5.45;;;1.35;;
29878;SDS011;16752;53.364;-1.488;2023-07-30T10:00:38;7.15;;;1.52;;
29878;SDS011;16752;53.364;-1.488;2023-07-30T10:03:23;2.58;;;1.27;;
29878;SDS011;16752;53.364;-1.488;2023-07-30T10:06:18;2.17;;;1.15;;
29878;SDS011;16752;53.364;-1.488;2023-07-30T10:12:20;3.17;;;0.85;;
29878;SDS011;16752;53.364;-1.488;2023-07-30T10:15:10;4.53;;;1.23;;
29878;SDS011;16752;53.364;-1.488;2023-07-30T10:18:15;2.05;;;0.95;;
29878;SDS011;16752;53.364;-1.488;2023-07-30T10:21:00;2.47;;;0.98;;
29878;SDS011;16752;53.364;-1.488;2023-07-30T10:23:46;2.25;;;0.88;;
29878;SDS011;16752;53.364;-1.488;2023-07-30T10:26:34;2.15;;;0.90;;
29878;SDS011;16752;53.364;-1.488;2023-07-30T10:29:23;6.07;;;1.25;;
29878;SDS011;16752;53.364;-1.488;2023-07-30T10:32:08;3.60;;;0.93;;
29878;SDS011;16752;53.364;-1.488;2023-07-30T10:34:52;2.60;;;0.80;;
29878;SDS011;16752;53.364;-1.488;2023-07-30T10:37:44;2.97;;;0.90;;
29878;SDS011;16752;53.364;-1.488;2023-07-30T10:40:30;4.35;;;1.13;;
29878;SDS011;16752;53.364;-1.488;2023-07-30T10:43:20;2.63;;;0.93;;
29878;SDS011;16752;53.364;-1.488;2023-07-30T10:46:05;1.85;;;0.93;;
29878;SDS011;16752;53.364;-1.488;2023-07-30T10:48:50;3.90;;;0.90;;
29878;SDS011;16752;53.364;-1.488;2023-07-30T10:51:35;2.20;;;1.08;;
29878;SDS011;16752;53.364;-1.488;2023-07-30T10:54:19;1.95;;;0.90;;
29878;SDS011;16752;53.364;-1.488;2023-07-30T10:57:03;3.17;;;1.15;;
29878;SDS011;16752;53.364;-1.488;2023-07-30T10:59:48;5.45;;;1.00;;
29878;SDS011;16752;53.364;-1.488;2023-07-30T11:02:38;5.07;;;0.90;;
29878;SDS011;16752;53.364;-1.488;2023-07-30T11:05:25;2.13;;;0.80;;
29878;SDS011;16752;53.364;-1.488;2023-07-30T11:08:14;1.55;;;0.70;;
29878;SDS011;16752;53.364;-1.488;2023-07-30T11:11:18;3.05;;;0.90;;
29878;SDS011;16752;53.364;-1.488;2023-07-30T11:14:24;3.80;;;0.90;;
29878;SDS011;16752;53.364;-1.488;2023-07-30T11:17:11;2.75;;;0.88;;
29878;SDS011;16752;53.364;-1.488;2023-07-30T11:20:12;1.67;;;0.70;;
29878;SDS011;16752;53.364;-1.488;2023-07-30T11:23:19;2.60;;;0.90;;
29878;SDS011;16752;53.364;-1.488;2023-07-30T11:26:24;1.60;;;0.63;;
29878;SDS011;16752;53.364;-1.488;2023-07-30T11:29:20;4.10;;;1.13;;
29878;SDS011;16752;53.364;-1.488;2023-07-30T11:32:04;2.85;;;0.60;;
29878;SDS011;16752;53.364;-1.488;2023-07-30T11:34:49;4.10;;;0.95;;
29878;SDS011;16752;53.364;-1.488;2023-07-30T11:37:38;3.70;;;1.20;;
29878;SDS011;16752;53.364;-1.488;2023-07-30T11:40:26;2.17;;;0.85;;
29878;SDS011;16752;53.364;-1.488;2023-07-30T11:43:10;1.73;;;0.80;;
29878;SDS011;16752;53.364;-1.488;2023-07-30T11:46:07;1.67;;;0.70;;
29878;SDS011;16752;53.364;-1.488;2023-07-30T11:48:53;3.17;;;0.57;;
29878;SDS011;16752;53.364;-1.488;2023-07-30T11:52:07;2.80;;;0.90;;
29878;SDS011;16752;53.364;-1.488;2023-07-30T11:54:59;2.22;;;0.70;;
29878;SDS011;16752;53.364;-1.488;2023-07-30T11:57:47;2.47;;;0.80;;
29878;SDS011;16752;53.364;-1.488;2023-07-30T12:00:31;2.30;;;0.75;;
29878;SDS011;16752;53.364;-1.488;2023-07-30T12:03:16;5.15;;;1.20;;
29878;SDS011;16752;53.364;-1.488;2023-07-30T12:06:04;2.70;;;1.15;;
29878;SDS011;16752;53.364;-1.488;2023-07-30T12:08:49;2.33;;;0.70;;
29878;SDS011;16752;53.364;-1.488;2023-07-30T12:11:35;1.95;;;0.75;;
29878;SDS011;16752;53.364;-1.488;2023-07-30T12:14:44;2.75;;;0.85;;
29878;SDS011;16752;53.364;-1.488;2023-07-30T12:17:37;1.67;;;0.65;;
29878;SDS011;16752;53.364;-1.488;2023-07-30T12:20:26;3.13;;;0.70;;
29878;SDS011;16752;53.364;-1.488;2023-07-30T12:23:11;1.60;;;0.75;;
29878;SDS011;16752;53.364;-1.488;2023-07-30T12:25:55;2.42;;;0.70;;
29878;SDS011;16752;53.364;-1.488;2023-07-30T12:28:39;4.43;;;0.75;;
29878;SDS011;16752;53.364;-1.488;2023-07-30T12:31:23;2.63;;;0.70;;
29878;SDS011;16752;53.364;-1.488;2023-07-30T12:34:07;0.70;;;0.50;;
29878;SDS011;16752;53.364;-1.488;2023-07-30T12:36:54;2.47;;;0.80;;
29878;SDS011;16752;53.364;-1.488;2023-07-30T12:39:39;1.05;;;0.60;;
29878;SDS011;16752;53.364;-1.488;2023-07-30T12:42:23;1.73;;;0.70;;
29878;SDS011;16752;53.364;-1.488;2023-07-30T12:45:08;2.17;;;0.80;;
29878;SDS011;16752;53.364;-1.488;2023-07-30T12:47:52;3.47;;;0.80;;
29878;SDS011;16752;53.364;-1.488;2023-07-30T12:50:42;1.95;;;0.70;;
29878;SDS011;16752;53.364;-1.488;2023-07-30T12:53:35;2.85;;;0.70;;
29878;SDS011;16752;53.364;-1.488;2023-07-30T12:56:19;2.00;;;0.73;;
29878;SDS011;16752;53.364;-1.488;2023-07-30T12:59:03;2.13;;;0.80;;
29878;SDS011;16752;53.364;-1.488;2023-07-30T13:01:47;1.98;;;0.80;;
29878;SDS011;16752;53.364;-1.488;2023-07-30T13:04:47;2.42;;;1.02;;
29878;SDS011;16752;53.364;-1.488;2023-07-30T13:08:06;1.83;;;0.88;;
29878;SDS011;16752;53.364;-1.488;2023-07-30T13:10:53;2.55;;;0.60;;
29878;SDS011;16752;53.364;-1.488;2023-07-30T13:13:43;2.03;;;0.80;;
29878;SDS011;16752;53.364;-1.488;2023-07-30T13:16:38;2.65;;;0.90;;
29878;SDS011;16752;53.364;-1.488;2023-07-30T13:19:22;6.22;;;0.85;;
29878;SDS011;16752;53.364;-1.488;2023-07-30T13:22:12;2.17;;;1.15;;
29878;SDS011;16752;53.364;-1.488;2023-07-30T13:25:00;3.85;;;1.15;;
29878;SDS011;16752;53.364;-1.488;2023-07-30T13:27:47;3.50;;;0.85;;
29878;SDS011;16752;53.364;-1.488;2023-07-30T13:30:31;4.97;;;1.48;;
29878;SDS011;16752;53.364;-1.488;2023-07-30T13:33:16;4.50;;;0.85;;
29878;SDS011;16752;53.364;-1.488;2023-07-30T13:36:00;4.75;;;1.17;;
29878;SDS011;16752;53.364;-1.488;2023-07-30T13:38:44;7.82;;;1.10;;
29878;SDS011;16752;53.364;-1.488;2023-07-30T13:41:28;4.97;;;1.17;;
29878;SDS011;16752;53.364;-1.488;2023-07-30T13:44:14;2.10;;;0.90;;
29878;SDS011;16752;53.364;-1.488;2023-07-30T13:47:01;3.10;;;1.13;;
29878;SDS011;16752;53.364;-1.488;2023-07-30T13:50:03;2.13;;;0.90;;
29878;SDS011;16752;53.364;-1.488;2023-07-30T13:52:50;3.30;;;1.35;;
29878;SDS011;16752;53.364;-1.488;2023-07-30T13:55:38;5.47;;;0.90;;
29878;SDS011;16752;53.364;-1.488;2023-07-30T13:58:31;6.65;;;1.40;;
29878;SDS011;16752;53.364;-1.488;2023-07-30T14:01:16;3.63;;;1.00;;
29878;SDS011;16752;53.364;-1.488;2023-07-30T14:06:54;3.42;;;0.93;;
29878;SDS011;16752;53.364;-1.488;2023-07-30T14:09:38;6.18;;;1.23;;
29878;SDS011;16752;53.364;-1.488;2023-07-30T14:12:31;3.70;;;1.25;;
29878;SDS011;16752;53.364;-1.488;2023-07-30T14:15:22;7.97;;;1.52;;
29878;SDS011;16752;53.364;-1.488;2023-07-30T14:18:10;5.43;;;1.35;;
29878;SDS011;16752;53.364;-1.488;2023-07-30T14:21:13;3.97;;;1.55;;
29878;SDS011;16752;53.364;-1.488;2023-07-30T14:24:17;5.68;;;2.13;;
29878;SDS011;16752;53.364;-1.488;2023-07-30T14:27:07;4.82;;;1.38;;
29878;SDS011;16752;53.364;-1.488;2023-07-30T14:29:49;6.13;;;1.85;;
29878;SDS011;16752;53.364;-1.488;2023-07-30T14:32:37;5.45;;;1.40;;
29878;SDS011;16752;53.364;-1.488;2023-07-30T14:35:24;2.97;;;1.63;;
29878;SDS011;16752;53.364;-1.488;2023-07-30T14:38:37;3.75;;;1.33;;
29878;SDS011;16752;53.364;-1.488;2023-07-30T14:41:52;5.47;;;1.83;;
29878;SDS011;16752;53.364;-1.488;2023-07-30T14:47:32;2.45;;;1.38;;
29878;SDS011;16752;53.364;-1.488;2023-07-30T14:50:16;3.30;;;1.55;;
29878;SDS011;16752;53.364;-1.488;2023-07-30T14:53:01;6.57;;;1.30;;
29878;SDS011;16752;53.364;-1.488;2023-07-30T14:55:48;10.15;;;1.80;;
29878;SDS011;16752;53.364;-1.488;2023-07-30T14:58:32;12.88;;;2.45;;
29878;SDS011;16752;53.364;-1.488;2023-07-30T15:01:16;7.18;;;1.80;;
29878;SDS011;16752;53.364;-1.488;2023-07-30T15:04:07;6.72;;;1.70;;
29878;SDS011;16752;53.364;-1.488;2023-07-30T15:06:51;8.90;;;1.40;;
29878;SDS011;16752;53.364;-1.488;2023-07-30T15:09:43;7.65;;;1.98;;
29878;SDS011;16752;53.364;-1.488;2023-07-30T15:12:29;3.60;;;1.65;;
29878;SDS011;16752;53.364;-1.488;2023-07-30T15:15:13;5.35;;;1.45;;
29878;SDS011;16752;53.364;-1.488;2023-07-30T15:17:57;6.00;;;1.70;;
29878;SDS011;16752;53.364;-1.488;2023-07-30T15:20:43;4.40;;;1.45;;
29878;SDS011;16752;53.364;-1.488;2023-07-30T15:23:27;6.90;;;1.80;;
29878;SDS011;16752;53.364;-1.488;2023-07-30T15:26:15;4.65;;;1.70;;
29878;SDS011;16752;53.364;-1.488;2023-07-30T15:28:59;12.35;;;2.03;;
29878;SDS011;16752;53.364;-1.488;2023-07-30T15:31:44;6.40;;;1.83;;
29878;SDS011;16752;53.364;-1.488;2023-07-30T15:34:34;6.63;;;2.28;;
29878;SDS011;16752;53.364;-1.488;2023-07-30T15:37:18;7.75;;;1.92;;
29878;SDS011;16752;53.364;-1.488;2023-07-30T15:40:05;7.03;;;2.20;;
29878;SDS011;16752;53.364;-1.488;2023-07-30T15:42:51;6.13;;;2.03;;
29878;SDS011;16752;53.364;-1.488;2023-07-30T15:45:36;5.40;;;1.90;;
29878;SDS011;16752;53.364;-1.488;2023-07-30T15:48:24;6.55;;;2.00;;
29878;SDS011;16752;53.364;-1.488;2023-07-30T15:51:07;5.25;;;1.90;;
29878;SDS011;16752;53.364;-1.488;2023-07-30T15:53:51;7.43;;;2.30;;
29878;SDS011;16752;53.364;-1.488;2023-07-30T15:56:35;10.40;;;2.03;;
29878;SDS011;16752;53.364;-1.488;2023-07-30T15:59:19;8.60;;;1.63;;
29878;SDS011;16752;53.364;-1.488;2023-07-30T16:02:09;6.20;;;2.55;;
29878;SDS011;16752;53.364;-1.488;2023-07-30T16:04:53;4.80;;;1.60;;
29878;SDS011;16752;53.364;-1.488;2023-07-30T16:07:37;4.28;;;2.10;;
29878;SDS011;16752;53.364;-1.488;2023-07-30T16:10:47;9.07;;;1.95;;
29878;SDS011;16752;53.364;-1.488;2023-07-30T16:13:32;3.63;;;2.08;;
29878;SDS011;16752;53.364;-1.488;2023-07-30T16:16:16;7.70;;;2.08;;
29878;SDS011;16752;53.364;-1.488;2023-07-30T16:19:01;8.05;;;1.83;;
29878;SDS011;16752;53.364;-1.488;2023-07-30T16:21:46;4.20;;;1.73;;
29878;SDS011;16752;53.364;-1.488;2023-07-30T16:24:39;4.10;;;1.50;;
29878;SDS011;16752;53.364;-1.488;2023-07-30T16:27:27;4.32;;;1.27;;
29878;SDS011;16752;53.364;-1.488;2023-07-30T16:30:11;3.10;;;1.63;;
29878;SDS011;16752;53.364;-1.488;2023-07-30T16:32:55;1.20;;;1.00;;
29878;SDS011;16752;53.364;-1.488;2023-07-30T16:35:39;4.00;;;1.45;;
29878;SDS011;16752;53.364;-1.488;2023-07-30T16:38:23;3.17;;;1.52;;